Startpagina
METAR-TAF:

METAR-TAF

Vliegvelden :

Alta Floresta, Mato Grosso, Brazilië

breedte: 09-52S, lengte: 056-06W, hoogte: 288 m

Actueel weer

Dit bericht is 11 uur en het 22 minuten geleden gemaakt, om 21:00 UTC
Wind 3 kt uit het westen
Temperatuur 26°C
Vochtigheid 89%
Druk 1008 hPa
Zicht 10 km of meer
Verspreide wolken op 1500 ft
Weinig wolken op 2000 ft, Stapelwolken.
Gebroken wolken op 10000 ft

METAR: SBAT 192100Z 27003KT 9999 SCT015 FEW020TCU BKN100 26/24 Q1008

Tijdstip: 04:22 (08:22 UTC)

Verwachting

Dit bericht is 5 uur en het 22 minuten geleden gemaakt, om 03:00 UTC
Verwachting geldig van 20 om 06 UTC tot 20 om 18 UTC
Wind 5 kt uit het noordnoordoosten
Zicht 10 km of meer
Wijzigt naar
van 20 om 16 UTC tot 20 om 18 UTC
Verspreide wolken op 1500 ft
Weinig wolken op 2500 ft, Stapelwolken.

TAF: SBAT 200300Z 2006/2018 02005KT 9999 SCT015TN25/2010Z TX33/2018Z BECMG 2016/2018 SCT015 FEW025TCU RMK PHI

Waarnemingen en weersverwachtingen van meer dan 4000 vliegvelden (METAR en TAF).

De beschikbare stations zijn de gele en rode punten op de kaart.

Ga met uw muis naar het station om de naam te zien.

Klik dan om waarnemingen en weersverwachtingen te zien.

kaart wijzigen: klik op de groene knoppen met een zwart kruis om in te zoomen, op de groene knop met een streepje om uit te zoomen of op de groene pijlen voor aangrenzende kaarten.


METAR-TAF: